createdAt,value
2018-04-01T00:02:10.482Z,7.00
2018-04-01T00:04:37.113Z,6.90
2018-04-01T00:07:03.514Z,7.10
2018-04-01T00:09:29.603Z,7.10
2018-04-01T00:11:55.628Z,7.00
2018-04-01T00:14:21.666Z,6.60
2018-04-01T00:16:47.674Z,6.60
2018-04-01T00:19:13.682Z,6.60
2018-04-01T00:21:39.735Z,6.70
2018-04-01T00:24:05.816Z,6.60
2018-04-01T00:26:31.862Z,6.90
2018-04-01T00:28:57.903Z,7.10
2018-04-01T00:31:23.921Z,6.90
2018-04-01T00:33:49.930Z,6.80
2018-04-01T00:36:15.958Z,6.70
2018-04-01T00:38:41.968Z,6.60
2018-04-01T00:41:08.009Z,6.80
2018-04-01T00:43:34.098Z,6.90
2018-04-01T00:46:00.096Z,6.90
2018-04-01T00:48:26.105Z,6.70
2018-04-01T00:50:52.127Z,6.70
2018-04-01T00:53:18.164Z,6.60
2018-04-01T00:55:44.174Z,6.70
2018-04-01T00:58:10.222Z,6.60
2018-04-01T01:00:36.249Z,6.50
2018-04-01T01:03:02.632Z,6.40
2018-04-01T01:05:28.682Z,6.40
2018-04-01T01:07:55.077Z,6.50
2018-04-01T01:10:21.096Z,6.50
2018-04-01T01:12:47.123Z,6.50
2018-04-01T01:15:13.114Z,6.60
2018-04-01T01:17:39.467Z,6.80
2018-04-01T01:20:05.500Z,6.80
2018-04-01T01:22:31.512Z,7.00
2018-04-01T01:24:57.509Z,7.00
2018-04-01T01:27:23.553Z,7.20
2018-04-01T01:29:49.625Z,7.20
2018-04-01T01:32:15.634Z,7.00
2018-04-01T01:34:41.662Z,7.00
2018-04-01T01:37:07.692Z,6.90
2018-04-01T01:39:33.720Z,6.90
2018-04-01T01:41:59.732Z,7.10
2018-04-01T01:44:25.757Z,7.00
2018-04-01T01:46:51.788Z,7.10
2018-04-01T01:49:17.816Z,7.10
2018-04-01T01:51:43.877Z,7.00
2018-04-01T01:54:09.946Z,6.80
2018-04-01T01:56:35.984Z,6.80
2018-04-01T01:59:02.076Z,6.80
2018-04-01T02:01:28.095Z,6.40
2018-04-01T02:03:54.166Z,6.50
2018-04-01T02:06:20.182Z,6.60
2018-04-01T02:08:46.222Z,6.70
2018-04-01T02:11:12.290Z,6.50
2018-04-01T02:13:38.300Z,6.50
2018-04-01T02:16:04.302Z,6.50
2018-04-01T02:18:30.718Z,6.40
2018-04-01T02:20:56.744Z,6.40
2018-04-01T02:23:23.159Z,6.50
2018-04-01T02:25:49.188Z,6.50
2018-04-01T02:28:15.190Z,6.70
2018-04-01T02:30:41.926Z,6.70
2018-04-01T02:33:07.950Z,6.80
2018-04-01T02:35:33.994Z,6.60
2018-04-01T02:38:00.003Z,6.60
2018-04-01T02:40:26.025Z,6.60
2018-04-01T02:42:52.071Z,6.70
2018-04-01T02:45:18.104Z,6.80
2018-04-01T02:47:44.137Z,6.70
2018-04-01T02:50:10.179Z,6.80
2018-04-01T02:52:36.190Z,6.60
2018-04-01T02:55:02.223Z,6.60
2018-04-01T02:57:28.262Z,6.40
2018-04-01T02:59:54.303Z,6.40
2018-04-01T03:02:20.314Z,6.40
2018-04-01T03:04:46.373Z,6.60
2018-04-01T03:07:12.367Z,6.70
2018-04-01T03:09:38.383Z,6.80
2018-04-01T03:12:04.452Z,6.90
2018-04-01T03:14:30.490Z,6.90
2018-04-01T03:16:56.902Z,6.80
2018-04-01T03:19:22.937Z,6.80
2018-04-01T03:21:48.983Z,6.60
2018-04-01T03:24:15.357Z,6.70
2018-04-01T03:26:41.401Z,6.70
2018-04-01T03:29:07.410Z,6.80
2018-04-01T03:31:33.436Z,7.00
2018-04-01T03:33:59.500Z,7.00
2018-04-01T03:36:25.877Z,6.80
2018-04-01T03:38:51.924Z,6.80
2018-04-01T03:41:17.962Z,6.80
2018-04-01T03:43:43.954Z,6.60
2018-04-01T03:46:09.977Z,6.60
2018-04-01T03:48:36.009Z,6.70
2018-04-01T03:51:02.013Z,6.50
2018-04-01T03:53:28.033Z,6.60
2018-04-01T03:55:54.069Z,6.70
2018-04-01T03:58:20.113Z,6.60
2018-04-01T04:00:46.120Z,6.60
2018-04-01T04:03:12.160Z,6.60
2018-04-01T04:05:38.212Z,6.70
2018-04-01T04:08:04.621Z,6.90
2018-04-01T04:10:30.678Z,6.90
2018-04-01T04:12:56.699Z,6.80
2018-04-01T04:15:22.772Z,6.80
2018-04-01T04:17:49.312Z,6.70
2018-04-01T04:20:15.313Z,6.50
2018-04-01T04:22:41.340Z,6.50
2018-04-01T04:25:07.353Z,6.50
2018-04-01T04:27:33.404Z,6.40
2018-04-01T04:29:59.458Z,6.50
2018-04-01T04:32:26.838Z,6.30
2018-04-01T04:34:52.841Z,6.30
2018-04-01T04:37:18.859Z,6.10
2018-04-01T04:39:44.907Z,6.00
2018-04-01T04:42:10.933Z,6.20
2018-04-01T04:44:36.954Z,6.30
2018-04-01T04:47:02.960Z,6.40
2018-04-01T04:49:28.965Z,6.50
2018-04-01T04:51:54.989Z,6.60
2018-04-01T04:54:21.017Z,6.70
2018-04-01T04:56:47.077Z,6.80
2018-04-01T04:59:13.098Z,6.90
2018-04-01T05:01:39.117Z,6.90
2018-04-01T05:04:05.136Z,7.00
2018-04-01T05:06:31.157Z,6.90
2018-04-01T05:08:57.492Z,7.10
2018-04-01T05:11:23.510Z,7.10
2018-04-01T05:13:49.548Z,7.10
2018-04-01T05:16:15.556Z,7.00
2018-04-01T05:18:41.560Z,7.00
2018-04-01T05:21:07.635Z,7.30
2018-04-01T05:23:33.740Z,7.20
2018-04-01T05:25:59.755Z,7.30
2018-04-01T05:28:25.831Z,7.00
2018-04-01T05:30:51.906Z,7.00
2018-04-01T05:33:18.020Z,6.90
2018-04-01T05:35:44.491Z,6.70
2018-04-01T05:38:10.547Z,6.70
2018-04-01T05:40:36.610Z,6.80
2018-04-01T05:43:02.717Z,6.90
2018-04-01T05:45:28.733Z,7.00
2018-04-01T05:47:54.716Z,6.80
2018-04-01T05:50:20.752Z,6.70
2018-04-01T05:52:46.749Z,6.70
2018-04-01T05:55:12.845Z,6.70
2018-04-01T05:57:39.068Z,6.90
2018-04-01T06:00:05.471Z,7.10
2018-04-01T06:02:31.476Z,7.10
2018-04-01T06:04:57.500Z,7.00
2018-04-01T06:07:23.544Z,6.80
2018-04-01T06:09:49.577Z,6.80
2018-04-01T06:12:15.638Z,6.90
2018-04-01T06:14:41.645Z,6.90
2018-04-01T06:17:07.665Z,7.00
2018-04-01T06:19:34.541Z,6.90
2018-04-01T06:22:00.541Z,7.00
2018-04-01T06:24:26.583Z,7.00
2018-04-01T06:26:52.628Z,7.10
2018-04-01T06:29:18.666Z,7.20
2018-04-01T06:31:44.687Z,7.10
2018-04-01T06:34:10.743Z,6.70
2018-04-01T06:36:37.139Z,6.60
2018-04-01T06:39:03.171Z,6.70
2018-04-01T06:41:29.196Z,6.70
2018-04-01T06:43:55.222Z,6.70
2018-04-01T06:46:21.245Z,6.30
2018-04-01T06:48:47.299Z,6.30
2018-04-01T06:51:14.694Z,6.40
2018-04-01T06:53:40.736Z,6.50
2018-04-01T06:56:07.418Z,6.40
2018-04-01T06:58:33.878Z,6.10
2018-04-01T07:00:59.881Z,6.10
2018-04-01T07:03:25.903Z,5.90
2018-04-01T07:05:52.308Z,6.30
2018-04-01T07:08:18.324Z,6.30
2018-04-01T07:10:44.358Z,6.50
2018-04-01T07:13:10.756Z,6.70
2018-04-01T07:15:36.762Z,6.70
2018-04-01T07:18:02.808Z,6.80
2018-04-01T07:20:28.836Z,6.70
2018-04-01T07:22:54.883Z,6.80
2018-04-01T07:25:21.254Z,7.00
2018-04-01T07:27:49.356Z,7.10
2018-04-01T07:30:15.398Z,7.10
2018-04-01T07:32:41.404Z,7.00
2018-04-01T07:35:07.456Z,6.80
2018-04-01T07:37:33.942Z,7.20
2018-04-01T07:39:59.968Z,7.20
2018-04-01T07:42:26.047Z,7.40
2018-04-01T07:44:52.431Z,7.60
2018-04-01T07:47:18.474Z,7.60
2018-04-01T07:49:44.525Z,7.60
2018-04-01T07:52:10.933Z,7.50
2018-04-01T07:54:36.954Z,7.50
2018-04-01T07:57:02.977Z,7.50
2018-04-01T07:59:29.163Z,7.50
2018-04-01T08:01:55.189Z,7.80
2018-04-01T08:04:21.234Z,7.90
2018-04-01T08:06:47.231Z,8.20
2018-04-01T08:09:13.613Z,8.20
2018-04-01T08:11:39.692Z,8.40
2018-04-01T08:14:05.720Z,8.50
2018-04-01T08:16:31.769Z,8.50
2018-04-01T08:18:57.800Z,8.40
2018-04-01T08:21:23.850Z,8.30
2018-04-01T08:23:49.909Z,8.30
2018-04-01T08:26:15.948Z,8.10
2018-04-01T08:28:41.990Z,8.00
2018-04-01T08:31:09.277Z,8.00
2018-04-01T08:33:35.662Z,8.00
2018-04-01T08:36:01.742Z,8.00
2018-04-01T08:38:28.124Z,7.40
2018-04-01T08:40:54.185Z,7.40
2018-04-01T08:43:20.594Z,7.90
2018-04-01T08:45:46.635Z,7.90
2018-04-01T08:48:13.081Z,8.60
2018-04-01T08:50:39.476Z,8.80
2018-04-01T08:53:05.577Z,8.80
2018-04-01T08:55:31.575Z,8.90
2018-04-01T08:57:57.611Z,9.00
2018-04-01T09:00:23.682Z,8.80
2018-04-01T09:02:49.795Z,8.60
2018-04-01T09:05:15.835Z,8.50
2018-04-01T09:07:41.824Z,8.30
2018-04-01T09:10:07.891Z,8.10
2018-04-01T09:12:34.315Z,8.60
2018-04-01T09:15:00.388Z,8.60
2018-04-01T09:17:26.411Z,8.70
2018-04-01T09:19:52.445Z,8.50
2018-04-01T09:22:18.493Z,8.50
2018-04-01T09:24:44.606Z,8.70
2018-04-01T09:27:10.650Z,8.80
2018-04-01T09:29:38.092Z,8.80
2018-04-01T09:32:04.126Z,8.80
2018-04-01T09:34:30.142Z,8.80
2018-04-01T09:36:56.202Z,8.90
2018-04-01T09:39:22.610Z,8.80
2018-04-01T09:41:48.626Z,8.90
2018-04-01T09:44:14.695Z,8.80
2018-04-01T09:46:40.765Z,8.90
2018-04-01T09:49:06.779Z,8.50
2018-04-01T09:51:33.406Z,8.30
2018-04-01T09:53:59.428Z,8.00
2018-04-01T09:56:25.443Z,8.00
2018-04-01T09:58:51.500Z,7.90
2018-04-01T10:01:17.772Z,8.10
2018-04-01T10:03:44.368Z,8.20
2018-04-01T10:06:10.674Z,8.30
2018-04-01T10:08:36.952Z,8.20
2018-04-01T10:11:03.573Z,8.20
2018-04-01T10:13:29.836Z,8.20
2018-04-01T10:15:56.622Z,8.20
2018-04-01T10:18:22.861Z,8.20
2018-04-01T10:20:49.111Z,8.30
2018-04-01T10:23:15.329Z,8.00
2018-04-01T10:25:41.527Z,7.70
2018-04-01T10:28:07.758Z,7.60
2018-04-01T10:30:34.084Z,7.90
2018-04-01T10:33:00.283Z,7.90
2018-04-01T10:35:26.508Z,7.80
2018-04-01T10:37:52.703Z,7.90
2018-04-01T10:40:18.955Z,7.80
2018-04-01T10:42:45.244Z,8.20
2018-04-01T10:45:11.489Z,8.60
2018-04-01T10:47:37.748Z,9.10
2018-04-01T10:50:04.355Z,8.70
2018-04-01T10:52:30.556Z,8.70
2018-04-01T10:54:56.982Z,8.00
2018-04-01T10:57:23.055Z,8.00
2018-04-01T10:59:49.077Z,7.90
2018-04-01T11:02:15.131Z,7.90
2018-04-01T11:04:41.746Z,8.20
2018-04-01T11:07:08.148Z,7.90
2018-04-01T11:09:34.164Z,7.90
2018-04-01T11:12:00.210Z,7.90
2018-04-01T11:14:26.269Z,7.90
2018-04-01T11:16:52.293Z,7.80
2018-04-01T11:19:18.357Z,7.70
2018-04-01T11:21:44.371Z,8.10
2018-04-01T11:24:11.313Z,10.30
2018-04-01T11:26:37.414Z,10.60
2018-04-01T11:29:03.423Z,10.20
2018-04-01T11:31:29.793Z,8.90
2018-04-01T11:33:55.874Z,8.90
2018-04-01T11:36:22.269Z,8.30
2018-04-01T11:38:48.285Z,8.30
2018-04-01T11:41:14.471Z,8.50
2018-04-01T11:43:40.742Z,9.10
2018-04-01T11:46:06.758Z,10.30
2018-04-01T11:48:32.799Z,11.50
2018-04-01T11:50:58.884Z,13.10
2018-04-01T11:53:25.298Z,19.40
2018-04-01T11:55:51.373Z,19.40
2018-04-01T11:58:17.432Z,22.90
2018-04-01T12:00:43.844Z,25.30
2018-04-01T12:03:09.914Z,25.30
2018-04-01T12:05:35.924Z,20.80
2018-04-01T12:08:02.626Z,17.30
2018-04-01T12:10:28.647Z,14.70
2018-04-01T12:12:54.674Z,13.10
2018-04-01T12:15:20.734Z,12.10
2018-04-01T12:17:46.749Z,11.40
2018-04-01T12:20:13.742Z,11.40
2018-04-01T12:22:39.797Z,11.50
2018-04-01T12:25:05.827Z,11.40
2018-04-01T12:27:31.838Z,11.10
2018-04-01T12:29:58.054Z,11.20
2018-04-01T12:32:24.152Z,11.70
2018-04-01T12:34:50.180Z,12.70
2018-04-01T12:37:16.245Z,12.70
2018-04-01T12:39:42.270Z,11.70
2018-04-01T12:42:08.354Z,10.60
2018-04-01T12:44:34.416Z,9.50
2018-04-01T12:47:00.418Z,8.70
2018-04-01T12:49:26.454Z,8.00
2018-04-01T12:51:52.477Z,7.60
2018-04-01T12:54:19.538Z,7.40
2018-04-01T12:56:45.559Z,7.40
2018-04-01T12:59:11.645Z,7.50
2018-04-01T13:01:37.671Z,7.60
2018-04-01T13:04:03.754Z,7.80
2018-04-01T13:06:29.815Z,8.00
2018-04-01T13:08:55.863Z,8.60
2018-04-01T13:11:21.917Z,9.00
2018-04-01T13:13:48.359Z,8.90
2018-04-01T13:16:14.752Z,8.90
2018-04-01T13:18:40.766Z,8.90
2018-04-01T13:21:06.825Z,9.40
2018-04-01T13:23:33.237Z,9.50
2018-04-01T13:25:59.273Z,9.50
2018-04-01T13:28:25.348Z,9.80
2018-04-01T13:30:51.379Z,10.50
2018-04-01T13:33:17.393Z,10.50
2018-04-01T13:35:43.440Z,10.60
2018-04-01T13:38:09.501Z,11.40
2018-04-01T13:40:35.546Z,11.80
2018-04-01T13:43:01.588Z,12.30
2018-04-01T13:45:27.609Z,11.70
2018-04-01T13:47:53.637Z,11.50
2018-04-01T13:50:19.739Z,11.50
2018-04-01T13:52:45.801Z,11.60
2018-04-01T13:55:11.845Z,11.00
2018-04-01T13:57:38.571Z,10.50
2018-04-01T14:00:04.652Z,10.30
2018-04-01T14:02:30.682Z,10.00
2018-04-01T14:04:56.782Z,9.50
2018-04-01T14:07:22.816Z,9.70
2018-04-01T14:09:48.846Z,9.90
2018-04-01T14:12:14.904Z,10.50
2018-04-01T14:14:40.962Z,10.70
2018-04-01T14:17:06.982Z,11.40
2018-04-01T14:19:33.022Z,11.80
2018-04-01T14:22:00.413Z,12.80
2018-04-01T14:24:26.466Z,12.80
2018-04-01T14:26:53.514Z,12.80
2018-04-01T14:29:19.545Z,13.00
2018-04-01T14:31:45.643Z,13.10
2018-04-01T14:34:11.709Z,13.30
2018-04-01T14:36:37.769Z,13.50
2018-04-01T14:39:03.792Z,13.80
2018-04-01T14:41:29.901Z,14.00
2018-04-01T14:43:55.971Z,14.00
2018-04-01T14:46:22.013Z,14.20
2018-04-01T14:48:48.066Z,14.00
2018-04-01T14:51:14.113Z,13.60
2018-04-01T14:53:40.161Z,12.90
2018-04-01T14:56:06.203Z,12.30
2018-04-01T14:58:32.254Z,11.70
2018-04-01T15:00:58.677Z,11.20
2018-04-01T15:03:24.760Z,11.20
2018-04-01T15:05:50.831Z,11.30
2018-04-01T15:08:16.848Z,11.40
2018-04-01T15:10:42.875Z,11.30
2018-04-01T15:13:08.942Z,11.00
2018-04-01T15:15:35.829Z,10.70
2018-04-01T15:18:01.860Z,10.40
2018-04-01T15:20:27.875Z,10.10
2018-04-01T15:22:53.905Z,10.30
2018-04-01T15:25:19.949Z,10.10
2018-04-01T15:27:46.346Z,10.50
2018-04-01T15:30:12.408Z,10.50
2018-04-01T15:32:38.821Z,10.60
2018-04-01T15:35:04.869Z,10.50
2018-04-01T15:37:31.265Z,10.00
2018-04-01T15:39:58.045Z,10.00
2018-04-01T15:42:24.124Z,10.10
2018-04-01T15:44:50.162Z,10.40
2018-04-01T15:47:16.204Z,10.80
2018-04-01T15:49:42.606Z,11.40
2018-04-01T15:52:08.693Z,11.40
2018-04-01T15:54:34.727Z,11.10
2018-04-01T15:57:00.771Z,10.80
2018-04-01T15:59:26.794Z,10.60
2018-04-01T16:01:52.828Z,10.40
2018-04-01T16:04:18.932Z,10.10
2018-04-01T16:06:44.988Z,9.60
2018-04-01T16:09:11.057Z,9.40
2018-04-01T16:11:37.110Z,8.90
2018-04-01T16:14:03.158Z,8.50
2018-04-01T16:16:29.210Z,8.70
2018-04-01T16:18:55.276Z,8.90
2018-04-01T16:21:21.317Z,8.90
2018-04-01T16:23:47.336Z,8.90
2018-04-01T16:26:13.414Z,8.80
2018-04-01T16:28:39.432Z,9.00
2018-04-01T16:31:05.497Z,9.10
2018-04-01T16:33:31.562Z,9.30
2018-04-01T16:35:57.637Z,9.40
2018-04-01T16:38:23.689Z,9.40
2018-04-01T16:40:49.769Z,9.40
2018-04-01T16:43:15.808Z,9.70
2018-04-01T16:45:41.904Z,9.30
2018-04-01T16:48:07.940Z,9.10
2018-04-01T16:50:33.967Z,9.00
2018-04-01T16:53:00.059Z,8.50
2018-04-01T16:55:26.487Z,8.60
2018-04-01T16:57:52.950Z,8.30
2018-04-01T17:00:18.970Z,8.30
2018-04-01T17:02:45.039Z,8.50
2018-04-01T17:05:11.083Z,8.70
2018-04-01T17:07:37.205Z,8.80
2018-04-01T17:10:03.249Z,8.80
2018-04-01T17:12:29.642Z,8.70
2018-04-01T17:14:55.725Z,8.80
2018-04-01T17:17:21.741Z,8.50
2018-04-01T17:19:47.806Z,8.50
2018-04-01T17:22:13.856Z,8.80
2018-04-01T17:24:39.883Z,8.80
2018-04-01T17:27:06.307Z,8.70
2018-04-01T17:29:32.332Z,8.70
2018-04-01T17:31:58.389Z,8.50
2018-04-01T17:34:24.465Z,8.40
2018-04-01T17:36:50.546Z,8.20
2018-04-01T17:39:16.596Z,8.10
2018-04-01T17:41:42.657Z,8.20
2018-04-01T17:44:08.727Z,8.40
2018-04-01T17:46:34.765Z,8.30
2018-04-01T17:49:00.791Z,8.30
2018-04-01T17:51:26.832Z,8.20
2018-04-01T17:53:52.866Z,8.20
2018-04-01T17:56:18.900Z,8.10
2018-04-01T17:58:45.013Z,8.20
2018-04-01T18:01:11.096Z,8.10
2018-04-01T18:03:37.199Z,8.10
2018-04-01T18:06:03.597Z,8.30
2018-04-01T18:08:29.720Z,8.30
2018-04-01T18:10:55.758Z,8.10
2018-04-01T18:13:22.146Z,7.90
2018-04-01T18:15:48.239Z,7.90
2018-04-01T18:18:14.343Z,7.90
2018-04-01T18:20:40.736Z,8.00
2018-04-01T18:23:06.829Z,7.90
2018-04-01T18:25:32.843Z,7.80
2018-04-01T18:27:59.208Z,7.60
2018-04-01T18:30:26.160Z,7.60
2018-04-01T18:32:52.184Z,7.40
2018-04-01T18:35:18.218Z,7.40
2018-04-01T18:37:44.239Z,7.40
2018-04-01T18:40:10.593Z,7.50
2018-04-01T18:42:36.621Z,7.60
2018-04-01T18:45:02.674Z,7.40
2018-04-01T18:47:28.718Z,7.40
2018-04-01T18:49:54.758Z,7.30
2018-04-01T18:52:20.850Z,7.30
2018-04-01T18:54:46.925Z,7.30
2018-04-01T18:57:12.924Z,7.50
2018-04-01T18:59:39.048Z,7.60
2018-04-01T19:02:06.828Z,7.70
2018-04-01T19:04:32.863Z,7.60
2018-04-01T19:06:58.919Z,7.70
2018-04-01T19:09:24.983Z,7.70
2018-04-01T19:11:51.090Z,7.70
2018-04-01T19:14:17.663Z,7.80
2018-04-01T19:16:56.194Z,7.60
2018-04-01T19:19:22.473Z,7.60
2018-04-01T19:21:48.734Z,7.50
2018-04-01T19:24:15.965Z,7.20
2018-04-01T19:26:42.231Z,7.50
2018-04-01T19:29:08.512Z,7.60
2018-04-01T19:31:34.796Z,7.70
2018-04-01T19:34:01.053Z,7.50
2018-04-01T19:36:27.297Z,7.60
2018-04-01T19:38:53.549Z,7.60
2018-04-01T19:41:19.832Z,7.30
2018-04-01T19:43:46.928Z,7.10
2018-04-01T19:46:13.198Z,7.20
2018-04-01T19:48:39.458Z,7.30
2018-04-01T19:51:05.676Z,7.20
2018-04-01T19:53:31.951Z,7.40
2018-04-01T19:55:58.252Z,7.50
2018-04-01T19:58:24.498Z,7.50
2018-04-01T20:00:50.752Z,7.40
2018-04-01T20:03:17.040Z,7.30
2018-04-01T20:05:43.508Z,7.20
2018-04-01T20:08:09.743Z,7.00
2018-04-01T20:10:36.032Z,7.20
2018-04-01T20:13:02.274Z,7.20
2018-04-01T20:15:28.546Z,7.20
2018-04-01T20:17:55.141Z,7.40
2018-04-01T20:20:21.391Z,7.40
2018-04-01T20:22:47.754Z,7.20
2018-04-01T20:25:13.965Z,7.20
2018-04-01T20:27:40.174Z,7.40
2018-04-01T20:30:06.443Z,7.20
2018-04-01T20:32:33.088Z,7.50
2018-04-01T20:34:59.316Z,7.50
2018-04-01T20:37:25.562Z,7.80
2018-04-01T20:39:51.853Z,7.80
2018-04-01T20:42:18.573Z,7.50
2018-04-01T20:44:44.836Z,7.50
2018-04-01T20:47:11.079Z,7.20
2018-04-01T20:49:37.333Z,6.90
2018-04-01T20:52:03.594Z,7.00
2018-04-01T20:54:29.862Z,7.10
2018-04-01T20:56:56.094Z,7.00
2018-04-01T20:59:22.434Z,7.10
2018-04-01T21:01:48.760Z,6.80
2018-04-01T21:04:15.093Z,6.70
2018-04-01T21:06:41.499Z,6.80
2018-04-01T21:09:07.822Z,6.80
2018-04-01T21:11:34.535Z,6.90
2018-04-01T21:14:00.822Z,6.90
2018-04-01T21:16:27.108Z,6.80
2018-04-01T21:18:53.372Z,7.10
2018-04-01T21:21:19.800Z,7.30
2018-04-01T21:23:46.624Z,7.20
2018-04-01T21:26:13.216Z,7.50
2018-04-01T21:28:39.470Z,7.50
2018-04-01T21:31:06.223Z,7.50
2018-04-01T21:33:32.506Z,7.40
2018-04-01T21:35:58.757Z,7.30
2018-04-01T21:38:25.920Z,7.20
2018-04-01T21:40:52.200Z,7.10
2018-04-01T21:43:18.448Z,7.20
2018-04-01T21:45:44.711Z,7.00
2018-04-01T21:48:10.985Z,6.80
2018-04-01T21:50:37.371Z,6.80
2018-04-01T21:53:03.591Z,6.80
2018-04-01T21:55:29.861Z,7.00
2018-04-01T21:57:56.126Z,7.10
2018-04-01T22:00:22.368Z,7.00
2018-04-01T22:02:48.651Z,7.10
2018-04-01T22:05:14.863Z,7.00
2018-04-01T22:07:41.559Z,7.00
2018-04-01T22:10:07.814Z,7.00
2018-04-01T22:12:34.064Z,7.20
2018-04-01T22:15:00.332Z,7.00
2018-04-01T22:17:26.566Z,7.00
2018-04-01T22:19:52.832Z,7.00
2018-04-01T22:22:19.422Z,7.20
2018-04-01T22:24:46.169Z,7.20
2018-04-01T22:27:12.480Z,7.10
2018-04-01T22:29:38.718Z,7.00
2018-04-01T22:32:05.003Z,7.10
2018-04-01T22:34:31.607Z,6.90
2018-04-01T22:36:57.886Z,6.90
2018-04-01T22:39:24.111Z,6.70
2018-04-01T22:41:50.314Z,6.60
2018-04-01T22:44:16.890Z,6.60
2018-04-01T22:46:43.168Z,6.60
2018-04-01T22:49:09.388Z,6.60
2018-04-01T22:51:35.614Z,6.60
2018-04-01T22:54:01.848Z,6.60
2018-04-01T22:56:28.067Z,6.60
2018-04-01T22:58:54.297Z,6.40
2018-04-01T23:01:20.562Z,6.50
2018-04-01T23:03:47.158Z,5.90
2018-04-01T23:06:13.390Z,5.80
2018-04-01T23:08:39.647Z,5.90
2018-04-01T23:11:06.270Z,6.20
2018-04-01T23:13:32.891Z,6.10
2018-04-01T23:16:00.003Z,6.00
2018-04-01T23:18:26.263Z,6.10
2018-04-01T23:20:52.527Z,6.00
2018-04-01T23:23:18.821Z,5.90
2018-04-01T23:25:45.045Z,5.80
2018-04-01T23:28:11.295Z,5.60
2018-04-01T23:30:37.538Z,5.70
2018-04-01T23:33:04.126Z,5.70
2018-04-01T23:35:30.329Z,5.70
2018-04-01T23:37:56.560Z,5.80
2018-04-01T23:40:22.785Z,5.90
2018-04-01T23:42:48.977Z,5.60
2018-04-01T23:45:15.216Z,5.60
2018-04-01T23:47:41.450Z,5.40
2018-04-01T23:50:08.061Z,5.50
2018-04-01T23:52:34.329Z,5.50
2018-04-01T23:55:01.353Z,5.50
2018-04-01T23:57:27.558Z,5.40
2018-04-01T23:59:53.797Z,5.60
